sensor_id;sensor_type;location;lat;lon;timestamp;pressure;altitude;pressure_sealevel;temperature
19040;BMP180;9652;49.014;12.052;2022-09-03T00:00:21;97674.00;;;16.40
19040;BMP180;9652;49.014;12.052;2022-09-03T00:02:58;97687.00;;;16.30
19040;BMP180;9652;49.014;12.052;2022-09-03T00:05:36;97680.00;;;16.30
19040;BMP180;9652;49.014;12.052;2022-09-03T00:08:14;97665.00;;;16.30
19040;BMP180;9652;49.014;12.052;2022-09-03T00:10:52;97674.00;;;16.20
19040;BMP180;9652;49.014;12.052;2022-09-03T00:13:26;97664.00;;;16.20
19040;BMP180;9652;49.014;12.052;2022-09-03T00:15:56;97671.00;;;16.20
19040;BMP180;9652;49.014;12.052;2022-09-03T00:18:30;97682.00;;;16.20
19040;BMP180;9652;49.014;12.052;2022-09-03T00:21:03;97659.00;;;16.20
19040;BMP180;9652;49.014;12.052;2022-09-03T00:23:40;97681.00;;;15.90
19040;BMP180;9652;49.014;12.052;2022-09-03T00:26:21;97672.00;;;16.10
19040;BMP180;9652;49.014;12.052;2022-09-03T00:28:56;97675.00;;;16.10
19040;BMP180;9652;49.014;12.052;2022-09-03T00:31:31;97679.00;;;16.00
19040;BMP180;9652;49.014;12.052;2022-09-03T00:34:06;97653.00;;;16.00
19040;BMP180;9652;49.014;12.052;2022-09-03T00:36:40;97680.00;;;16.00
19040;BMP180;9652;49.014;12.052;2022-09-03T00:39:15;97679.00;;;15.90
19040;BMP180;9652;49.014;12.052;2022-09-03T00:42:03;97674.00;;;15.90
19040;BMP180;9652;49.014;12.052;2022-09-03T00:44:53;97684.00;;;15.90
19040;BMP180;9652;49.014;12.052;2022-09-03T00:47:29;97615.00;;;15.90
19040;BMP180;9652;49.014;12.052;2022-09-03T00:50:10;97679.00;;;15.90
19040;BMP180;9652;49.014;12.052;2022-09-03T00:52:53;97685.00;;;15.80
19040;BMP180;9652;49.014;12.052;2022-09-03T00:55:39;97683.00;;;15.80
19040;BMP180;9652;49.014;12.052;2022-09-03T01:01:19;97675.00;;;15.80
19040;BMP180;9652;49.014;12.052;2022-09-03T01:04:00;97679.00;;;15.70
19040;BMP180;9652;49.014;12.052;2022-09-03T01:06:39;97686.00;;;15.70
19040;BMP180;9652;49.014;12.052;2022-09-03T01:09:29;97692.00;;;15.70
19040;BMP180;9652;49.014;12.052;2022-09-03T01:12:15;97692.00;;;15.60
19040;BMP180;9652;49.014;12.052;2022-09-03T01:14:58;97702.00;;;15.60
19040;BMP180;9652;49.014;12.052;2022-09-03T01:17:41;97694.00;;;15.60
19040;BMP180;9652;49.014;12.052;2022-09-03T01:20:34;97687.00;;;15.60
19040;BMP180;9652;49.014;12.052;2022-09-03T01:26:43;97620.00;;;15.50
19040;BMP180;9652;49.014;12.052;2022-09-03T01:29:23;97651.00;;;15.50
19040;BMP180;9652;49.014;12.052;2022-09-03T01:32:02;97678.00;;;15.50
19040;BMP180;9652;49.014;12.052;2022-09-03T01:34:44;97636.00;;;15.40
19040;BMP180;9652;49.014;12.052;2022-09-03T01:37:29;97670.00;;;15.40
19040;BMP180;9652;49.014;12.052;2022-09-03T01:40:17;97671.00;;;15.40
19040;BMP180;9652;49.014;12.052;2022-09-03T01:43:20;97670.00;;;15.40
19040;BMP180;9652;49.014;12.052;2022-09-03T01:45:55;97681.00;;;15.30
19040;BMP180;9652;49.014;12.052;2022-09-03T01:48:39;97682.00;;;15.30
19040;BMP180;9652;49.014;12.052;2022-09-03T01:51:18;97682.00;;;15.30
19040;BMP180;9652;49.014;12.052;2022-09-03T01:54:24;97678.00;;;15.30
19040;BMP180;9652;49.014;12.052;2022-09-03T02:00:08;97688.00;;;15.20
19040;BMP180;9652;49.014;12.052;2022-09-03T02:02:42;97678.00;;;15.20
19040;BMP180;9652;49.014;12.052;2022-09-03T02:05:16;97687.00;;;15.20
19040;BMP180;9652;49.014;12.052;2022-09-03T02:07:46;97681.00;;;15.20
19040;BMP180;9652;49.014;12.052;2022-09-03T02:10:18;97672.00;;;15.20
19040;BMP180;9652;49.014;12.052;2022-09-03T02:12:50;97673.00;;;15.20
19040;BMP180;9652;49.014;12.052;2022-09-03T02:15:22;97643.00;;;15.10
19040;BMP180;9652;49.014;12.052;2022-09-03T02:17:56;97592.00;;;15.10
19040;BMP180;9652;49.014;12.052;2022-09-03T02:20:28;97594.00;;;15.10
19040;BMP180;9652;49.014;12.052;2022-09-03T02:22:57;97677.00;;;15.10
19040;BMP180;9652;49.014;12.052;2022-09-03T02:25:31;97673.00;;;15.10
19040;BMP180;9652;49.014;12.052;2022-09-03T02:28:02;97671.00;;;15.10
19040;BMP180;9652;49.014;12.052;2022-09-03T02:30:30;97668.00;;;15.10
19040;BMP180;9652;49.014;12.052;2022-09-03T02:32:59;97636.00;;;15.10
19040;BMP180;9652;49.014;12.052;2022-09-03T02:35:27;97666.00;;;15.10
19040;BMP180;9652;49.014;12.052;2022-09-03T02:37:54;97669.00;;;15.10
19040;BMP180;9652;49.014;12.052;2022-09-03T02:40:21;97667.00;;;15.10
19040;BMP180;9652;49.014;12.052;2022-09-03T02:42:49;97676.00;;;15.10
19040;BMP180;9652;49.014;12.052;2022-09-03T02:45:26;97677.00;;;15.10
19040;BMP180;9652;49.014;12.052;2022-09-03T02:47:57;97682.00;;;15.10
19040;BMP180;9652;49.014;12.052;2022-09-03T02:50:26;97639.00;;;15.10
19040;BMP180;9652;49.014;12.052;2022-09-03T02:52:53;97618.00;;;15.10
19040;BMP180;9652;49.014;12.052;2022-09-03T02:55:21;97666.00;;;15.20
19040;BMP180;9652;49.014;12.052;2022-09-03T02:57:48;97650.00;;;15.20
19040;BMP180;9652;49.014;12.052;2022-09-03T03:00:16;97666.00;;;15.20
19040;BMP180;9652;49.014;12.052;2022-09-03T03:02:45;97668.00;;;15.30
19040;BMP180;9652;49.014;12.052;2022-09-03T03:05:23;97629.00;;;15.30
19040;BMP180;9652;49.014;12.052;2022-09-03T03:07:53;97669.00;;;15.40
19040;BMP180;9652;49.014;12.052;2022-09-03T03:10:20;97672.00;;;15.40
19040;BMP180;9652;49.014;12.052;2022-09-03T03:12:47;97666.00;;;15.50
19040;BMP180;9652;49.014;12.052;2022-09-03T03:15:15;97671.00;;;15.50
19040;BMP180;9652;49.014;12.052;2022-09-03T03:17:42;97682.00;;;15.50
19040;BMP180;9652;49.014;12.052;2022-09-03T03:20:09;97682.00;;;15.60
19040;BMP180;9652;49.014;12.052;2022-09-03T03:22:37;97685.00;;;15.60
19040;BMP180;9652;49.014;12.052;2022-09-03T03:25:06;97681.00;;;15.60
19040;BMP180;9652;49.014;12.052;2022-09-03T03:27:34;97684.00;;;15.70
19040;BMP180;9652;49.014;12.052;2022-09-03T03:30:08;97688.00;;;15.70
19040;BMP180;9652;49.014;12.052;2022-09-03T03:32:37;97677.00;;;15.70
19040;BMP180;9652;49.014;12.052;2022-09-03T03:35:06;97648.00;;;15.70
19040;BMP180;9652;49.014;12.052;2022-09-03T03:37:33;97674.00;;;15.80
19040;BMP180;9652;49.014;12.052;2022-09-03T03:40:01;97651.00;;;15.80
19040;BMP180;9652;49.014;12.052;2022-09-03T03:42:32;97666.00;;;15.80
19040;BMP180;9652;49.014;12.052;2022-09-03T03:44:59;97669.00;;;15.80
19040;BMP180;9652;49.014;12.052;2022-09-03T03:47:27;97675.00;;;15.80
19040;BMP180;9652;49.014;12.052;2022-09-03T03:49:55;97670.00;;;15.80
19040;BMP180;9652;49.014;12.052;2022-09-03T03:52:23;97657.00;;;15.70
19040;BMP180;9652;49.014;12.052;2022-09-03T03:54:50;97642.00;;;15.70
19040;BMP180;9652;49.014;12.052;2022-09-03T03:57:18;97674.00;;;15.70
19040;BMP180;9652;49.014;12.052;2022-09-03T03:59:47;97651.00;;;15.70
19040;BMP180;9652;49.014;12.052;2022-09-03T04:02:15;97675.00;;;15.60
19040;BMP180;9652;49.014;12.052;2022-09-03T04:04:43;97672.00;;;15.60
19040;BMP180;9652;49.014;12.052;2022-09-03T04:07:10;97640.00;;;15.60
19040;BMP180;9652;49.014;12.052;2022-09-03T04:09:37;97676.00;;;15.50
19040;BMP180;9652;49.014;12.052;2022-09-03T04:12:05;97663.00;;;15.50
19040;BMP180;9652;49.014;12.052;2022-09-03T04:14:34;97684.00;;;15.50
19040;BMP180;9652;49.014;12.052;2022-09-03T04:17:02;97674.00;;;15.50
19040;BMP180;9652;49.014;12.052;2022-09-03T04:19:30;97581.00;;;15.40
19040;BMP180;9652;49.014;12.052;2022-09-03T04:21:57;97679.00;;;15.40
19040;BMP180;9652;49.014;12.052;2022-09-03T04:24:24;97658.00;;;15.40
19040;BMP180;9652;49.014;12.052;2022-09-03T04:26:52;97684.00;;;15.40
19040;BMP180;9652;49.014;12.052;2022-09-03T04:29:19;97676.00;;;15.10
19040;BMP180;9652;49.014;12.052;2022-09-03T04:31:47;97642.00;;;15.30
19040;BMP180;9652;49.014;12.052;2022-09-03T04:34:29;97675.00;;;15.00
19040;BMP180;9652;49.014;12.052;2022-09-03T04:36:56;97688.00;;;15.30
19040;BMP180;9652;49.014;12.052;2022-09-03T04:39:24;97676.00;;;15.20
19040;BMP180;9652;49.014;12.052;2022-09-03T04:41:51;97687.00;;;15.20
19040;BMP180;9652;49.014;12.052;2022-09-03T04:44:19;97685.00;;;15.20
19040;BMP180;9652;49.014;12.052;2022-09-03T04:46:46;97670.00;;;15.20
19040;BMP180;9652;49.014;12.052;2022-09-03T04:49:13;97625.00;;;15.20
19040;BMP180;9652;49.014;12.052;2022-09-03T04:51:41;97689.00;;;15.20
19040;BMP180;9652;49.014;12.052;2022-09-03T04:54:09;97682.00;;;15.30
19040;BMP180;9652;49.014;12.052;2022-09-03T04:56:38;97703.00;;;15.30
19040;BMP180;9652;49.014;12.052;2022-09-03T04:59:08;97685.00;;;15.30
19040;BMP180;9652;49.014;12.052;2022-09-03T05:01:37;97653.00;;;15.30
19040;BMP180;9652;49.014;12.052;2022-09-03T05:04:06;97683.00;;;15.40
19040;BMP180;9652;49.014;12.052;2022-09-03T05:06:35;97661.00;;;15.40
19040;BMP180;9652;49.014;12.052;2022-09-03T05:09:05;97690.00;;;15.40
19040;BMP180;9652;49.014;12.052;2022-09-03T05:11:32;97669.00;;;15.50
19040;BMP180;9652;49.014;12.052;2022-09-03T05:13:59;97697.00;;;15.30
19040;BMP180;9652;49.014;12.052;2022-09-03T05:16:27;97692.00;;;15.60
19040;BMP180;9652;49.014;12.052;2022-09-03T05:18:58;97690.00;;;15.60
19040;BMP180;9652;49.014;12.052;2022-09-03T05:21:26;97676.00;;;15.60
19040;BMP180;9652;49.014;12.052;2022-09-03T05:23:54;97683.00;;;15.70
19040;BMP180;9652;49.014;12.052;2022-09-03T05:26:25;97702.00;;;15.70
19040;BMP180;9652;49.014;12.052;2022-09-03T05:28:54;97697.00;;;15.80
19040;BMP180;9652;49.014;12.052;2022-09-03T05:31:24;97669.00;;;15.80
19040;BMP180;9652;49.014;12.052;2022-09-03T05:33:55;97687.00;;;15.90
19040;BMP180;9652;49.014;12.052;2022-09-03T05:36:26;97671.00;;;16.00
19040;BMP180;9652;49.014;12.052;2022-09-03T05:38:54;97689.00;;;16.10
19040;BMP180;9652;49.014;12.052;2022-09-03T05:41:24;97694.00;;;16.10
19040;BMP180;9652;49.014;12.052;2022-09-03T05:43:54;97691.00;;;16.20
19040;BMP180;9652;49.014;12.052;2022-09-03T05:46:25;97709.00;;;16.30
19040;BMP180;9652;49.014;12.052;2022-09-03T05:48:57;97701.00;;;16.30
19040;BMP180;9652;49.014;12.052;2022-09-03T05:51:25;97690.00;;;16.40
19040;BMP180;9652;49.014;12.052;2022-09-03T05:53:52;97680.00;;;16.50
19040;BMP180;9652;49.014;12.052;2022-09-03T05:56:24;97671.00;;;16.50
19040;BMP180;9652;49.014;12.052;2022-09-03T05:58:54;97693.00;;;16.60
19040;BMP180;9652;49.014;12.052;2022-09-03T06:01:24;97698.00;;;16.50
19040;BMP180;9652;49.014;12.052;2022-09-03T06:03:56;97696.00;;;16.70
19040;BMP180;9652;49.014;12.052;2022-09-03T06:06:26;97676.00;;;16.70
19040;BMP180;9652;49.014;12.052;2022-09-03T06:08:56;97678.00;;;16.80
19040;BMP180;9652;49.014;12.052;2022-09-03T06:11:26;97696.00;;;16.90
19040;BMP180;9652;49.014;12.052;2022-09-03T06:13:54;97711.00;;;16.90
19040;BMP180;9652;49.014;12.052;2022-09-03T06:16:23;97713.00;;;16.90
19040;BMP180;9652;49.014;12.052;2022-09-03T06:18:50;97711.00;;;17.00
19040;BMP180;9652;49.014;12.052;2022-09-03T06:21:18;97694.00;;;17.00
19040;BMP180;9652;49.014;12.052;2022-09-03T06:23:49;97715.00;;;17.00
19040;BMP180;9652;49.014;12.052;2022-09-03T06:26:21;97713.00;;;17.00
19040;BMP180;9652;49.014;12.052;2022-09-03T06:28:50;97704.00;;;16.70
19040;BMP180;9652;49.014;12.052;2022-09-03T06:31:21;97707.00;;;17.00
19040;BMP180;9652;49.014;12.052;2022-09-03T06:33:48;97711.00;;;17.00
19040;BMP180;9652;49.014;12.052;2022-09-03T06:36:18;97719.00;;;17.10
19040;BMP180;9652;49.014;12.052;2022-09-03T06:38:46;97718.00;;;17.20
19040;BMP180;9652;49.014;12.052;2022-09-03T06:41:15;97723.00;;;17.30
19040;BMP180;9652;49.014;12.052;2022-09-03T06:43:53;97698.00;;;17.40
19040;BMP180;9652;49.014;12.052;2022-09-03T06:46:23;97718.00;;;17.40
19040;BMP180;9652;49.014;12.052;2022-09-03T06:48:50;97722.00;;;17.60
19040;BMP180;9652;49.014;12.052;2022-09-03T06:51:20;97730.00;;;17.70
19040;BMP180;9652;49.014;12.052;2022-09-03T06:53:50;97684.00;;;17.80
19040;BMP180;9652;49.014;12.052;2022-09-03T06:56:21;97747.00;;;17.90
19040;BMP180;9652;49.014;12.052;2022-09-03T06:58:54;97743.00;;;17.90
19040;BMP180;9652;49.014;12.052;2022-09-03T07:01:24;97747.00;;;18.00
19040;BMP180;9652;49.014;12.052;2022-09-03T07:03:54;97725.00;;;18.10
19040;BMP180;9652;49.014;12.052;2022-09-03T07:06:24;97718.00;;;18.10
19040;BMP180;9652;49.014;12.052;2022-09-03T07:08:52;97700.00;;;18.20
19040;BMP180;9652;49.014;12.052;2022-09-03T07:11:22;97712.00;;;18.20
19040;BMP180;9652;49.014;12.052;2022-09-03T07:13:53;97715.00;;;18.10
19040;BMP180;9652;49.014;12.052;2022-09-03T07:16:22;97708.00;;;18.40
19040;BMP180;9652;49.014;12.052;2022-09-03T07:18:51;97717.00;;;18.40
19040;BMP180;9652;49.014;12.052;2022-09-03T07:21:20;97715.00;;;18.50
19040;BMP180;9652;49.014;12.052;2022-09-03T07:23:49;97717.00;;;18.60
19040;BMP180;9652;49.014;12.052;2022-09-03T07:26:19;97719.00;;;18.70
19040;BMP180;9652;49.014;12.052;2022-09-03T07:28:47;97721.00;;;18.80
19040;BMP180;9652;49.014;12.052;2022-09-03T07:31:19;97719.00;;;18.80
19040;BMP180;9652;49.014;12.052;2022-09-03T07:33:47;97727.00;;;18.90
19040;BMP180;9652;49.014;12.052;2022-09-03T07:36:16;97742.00;;;19.00
19040;BMP180;9652;49.014;12.052;2022-09-03T07:38:44;97728.00;;;19.10
19040;BMP180;9652;49.014;12.052;2022-09-03T07:41:14;97724.00;;;19.10
19040;BMP180;9652;49.014;12.052;2022-09-03T07:43:43;97730.00;;;19.20
19040;BMP180;9652;49.014;12.052;2022-09-03T07:46:13;97735.00;;;19.30
19040;BMP180;9652;49.014;12.052;2022-09-03T07:48:45;97706.00;;;19.30
19040;BMP180;9652;49.014;12.052;2022-09-03T07:51:14;97706.00;;;19.40
19040;BMP180;9652;49.014;12.052;2022-09-03T07:53:42;97735.00;;;19.50
19040;BMP180;9652;49.014;12.052;2022-09-03T07:56:10;97703.00;;;19.50
19040;BMP180;9652;49.014;12.052;2022-09-03T07:58:38;97720.00;;;19.60
19040;BMP180;9652;49.014;12.052;2022-09-03T08:01:08;97733.00;;;19.80
19040;BMP180;9652;49.014;12.052;2022-09-03T08:03:36;97726.00;;;19.90
19040;BMP180;9652;49.014;12.052;2022-09-03T08:06:07;97734.00;;;20.00
19040;BMP180;9652;49.014;12.052;2022-09-03T08:08:35;97720.00;;;20.10
19040;BMP180;9652;49.014;12.052;2022-09-03T08:11:05;97718.00;;;20.20
19040;BMP180;9652;49.014;12.052;2022-09-03T08:13:37;97742.00;;;20.40
19040;BMP180;9652;49.014;12.052;2022-09-03T08:16:06;97720.00;;;20.50
19040;BMP180;9652;49.014;12.052;2022-09-03T08:18:34;97699.00;;;20.60
19040;BMP180;9652;49.014;12.052;2022-09-03T08:21:05;97742.00;;;20.80
19040;BMP180;9652;49.014;12.052;2022-09-03T08:23:36;97743.00;;;20.90
19040;BMP180;9652;49.014;12.052;2022-09-03T08:26:04;97740.00;;;21.10
19040;BMP180;9652;49.014;12.052;2022-09-03T08:28:33;97720.00;;;21.20
19040;BMP180;9652;49.014;12.052;2022-09-03T08:31:05;97740.00;;;21.30
19040;BMP180;9652;49.014;12.052;2022-09-03T08:33:32;97744.00;;;21.50
19040;BMP180;9652;49.014;12.052;2022-09-03T08:36:12;97749.00;;;21.60
19040;BMP180;9652;49.014;12.052;2022-09-03T08:38:40;97767.00;;;21.70
19040;BMP180;9652;49.014;12.052;2022-09-03T08:41:13;97741.00;;;21.80
19040;BMP180;9652;49.014;12.052;2022-09-03T08:44:05;97745.00;;;21.90
19040;BMP180;9652;49.014;12.052;2022-09-03T08:46:48;97748.00;;;22.00
19040;BMP180;9652;49.014;12.052;2022-09-03T08:49:24;97683.00;;;22.00
19040;BMP180;9652;49.014;12.052;2022-09-03T08:51:57;97749.00;;;22.10
19040;BMP180;9652;49.014;12.052;2022-09-03T08:54:30;97710.00;;;22.10
19040;BMP180;9652;49.014;12.052;2022-09-03T08:57:01;97749.00;;;22.10
19040;BMP180;9652;49.014;12.052;2022-09-03T08:59:30;97723.00;;;22.20
19040;BMP180;9652;49.014;12.052;2022-09-03T09:02:16;97737.00;;;22.20
19040;BMP180;9652;49.014;12.052;2022-09-03T09:04:58;97739.00;;;22.20
19040;BMP180;9652;49.014;12.052;2022-09-03T09:07:37;97737.00;;;22.20
19040;BMP180;9652;49.014;12.052;2022-09-03T09:10:14;97729.00;;;22.20
19040;BMP180;9652;49.014;12.052;2022-09-03T09:12:53;97723.00;;;22.20
19040;BMP180;9652;49.014;12.052;2022-09-03T09:15:33;97728.00;;;22.30
19040;BMP180;9652;49.014;12.052;2022-09-03T09:18:16;97728.00;;;22.30
19040;BMP180;9652;49.014;12.052;2022-09-03T09:20:52;97709.00;;;22.30
19040;BMP180;9652;49.014;12.052;2022-09-03T09:23:29;97727.00;;;22.30
19040;BMP180;9652;49.014;12.052;2022-09-03T09:26:00;97726.00;;;22.40
19040;BMP180;9652;49.014;12.052;2022-09-03T09:28:34;97727.00;;;22.30
19040;BMP180;9652;49.014;12.052;2022-09-03T09:31:05;97714.00;;;22.30
19040;BMP180;9652;49.014;12.052;2022-09-03T09:33:33;97725.00;;;22.30
19040;BMP180;9652;49.014;12.052;2022-09-03T09:36:03;97727.00;;;22.20
19040;BMP180;9652;49.014;12.052;2022-09-03T09:38:34;97728.00;;;22.20
19040;BMP180;9652;49.014;12.052;2022-09-03T09:41:10;97727.00;;;21.90
19040;BMP180;9652;49.014;12.052;2022-09-03T09:43:37;97720.00;;;22.10
19040;BMP180;9652;49.014;12.052;2022-09-03T09:46:10;97718.00;;;22.10
19040;BMP180;9652;49.014;12.052;2022-09-03T09:48:48;97708.00;;;22.10
19040;BMP180;9652;49.014;12.052;2022-09-03T09:51:19;97713.00;;;22.10
19040;BMP180;9652;49.014;12.052;2022-09-03T09:54:01;97685.00;;;22.10
19040;BMP180;9652;49.014;12.052;2022-09-03T09:56:29;97693.00;;;22.20
19040;BMP180;9652;49.014;12.052;2022-09-03T09:59:05;97712.00;;;21.80
19040;BMP180;9652;49.014;12.052;2022-09-03T10:01:33;97694.00;;;22.30
19040;BMP180;9652;49.014;12.052;2022-09-03T10:04:10;97694.00;;;22.30
19040;BMP180;9652;49.014;12.052;2022-09-03T10:06:38;97660.00;;;22.50
19040;BMP180;9652;49.014;12.052;2022-09-03T10:09:25;97682.00;;;22.50
19040;BMP180;9652;49.014;12.052;2022-09-03T10:12:08;97707.00;;;22.60
19040;BMP180;9652;49.014;12.052;2022-09-03T10:14:45;97704.00;;;22.70
19040;BMP180;9652;49.014;12.052;2022-09-03T10:17:19;97700.00;;;22.70
19040;BMP180;9652;49.014;12.052;2022-09-03T10:19:59;97689.00;;;22.80
19040;BMP180;9652;49.014;12.052;2022-09-03T10:22:54;97698.00;;;22.90
19040;BMP180;9652;49.014;12.052;2022-09-03T10:25:29;97691.00;;;22.90
19040;BMP180;9652;49.014;12.052;2022-09-03T10:28:01;97683.00;;;23.00
19040;BMP180;9652;49.014;12.052;2022-09-03T10:30:35;97686.00;;;23.10
19040;BMP180;9652;49.014;12.052;2022-09-03T10:33:18;97691.00;;;23.20
19040;BMP180;9652;49.014;12.052;2022-09-03T10:35:55;97628.00;;;23.30
19040;BMP180;9652;49.014;12.052;2022-09-03T10:38:29;97704.00;;;23.40
19040;BMP180;9652;49.014;12.052;2022-09-03T10:41:15;97693.00;;;23.50
19040;BMP180;9652;49.014;12.052;2022-09-03T10:44:08;97648.00;;;23.60
19040;BMP180;9652;49.014;12.052;2022-09-03T10:46:55;97698.00;;;23.80
19040;BMP180;9652;49.014;12.052;2022-09-03T10:49:39;97697.00;;;23.90
19040;BMP180;9652;49.014;12.052;2022-09-03T10:52:26;97711.00;;;24.10
19040;BMP180;9652;49.014;12.052;2022-09-03T10:55:18;97695.00;;;24.30
19040;BMP180;9652;49.014;12.052;2022-09-03T10:58:06;97698.00;;;24.40
19040;BMP180;9652;49.014;12.052;2022-09-03T11:00:47;97696.00;;;24.50
19040;BMP180;9652;49.014;12.052;2022-09-03T11:03:45;97683.00;;;24.60
19040;BMP180;9652;49.014;12.052;2022-09-03T11:06:19;97689.00;;;24.70
19040;BMP180;9652;49.014;12.052;2022-09-03T11:08:57;97678.00;;;24.80
19040;BMP180;9652;49.014;12.052;2022-09-03T11:11:33;97680.00;;;24.90
19040;BMP180;9652;49.014;12.052;2022-09-03T11:14:08;97681.00;;;25.00
19040;BMP180;9652;49.014;12.052;2022-09-03T11:16:41;97656.00;;;25.10
19040;BMP180;9652;49.014;12.052;2022-09-03T11:19:15;97673.00;;;25.20
19040;BMP180;9652;49.014;12.052;2022-09-03T11:21:46;97677.00;;;25.30
19040;BMP180;9652;49.014;12.052;2022-09-03T11:24:20;97678.00;;;25.40
19040;BMP180;9652;49.014;12.052;2022-09-03T11:26:54;97672.00;;;25.60
19040;BMP180;9652;49.014;12.052;2022-09-03T11:29:33;97674.00;;;25.70
19040;BMP180;9652;49.014;12.052;2022-09-03T11:32:08;97675.00;;;25.80
19040;BMP180;9652;49.014;12.052;2022-09-03T11:34:46;97678.00;;;25.90
19040;BMP180;9652;49.014;12.052;2022-09-03T11:37:20;97677.00;;;26.00
19040;BMP180;9652;49.014;12.052;2022-09-03T11:39:58;97681.00;;;26.10
19040;BMP180;9652;49.014;12.052;2022-09-03T11:42:34;97677.00;;;26.10
19040;BMP180;9652;49.014;12.052;2022-09-03T11:45:36;97674.00;;;26.20
19040;BMP180;9652;49.014;12.052;2022-09-03T11:48:19;97661.00;;;26.20
19040;BMP180;9652;49.014;12.052;2022-09-03T11:50:56;97672.00;;;26.30
19040;BMP180;9652;49.014;12.052;2022-09-03T11:53:26;97667.00;;;26.30
19040;BMP180;9652;49.014;12.052;2022-09-03T11:56:00;97681.00;;;26.30
19040;BMP180;9652;49.014;12.052;2022-09-03T11:58:30;97667.00;;;26.40
19040;BMP180;9652;49.014;12.052;2022-09-03T12:01:03;97676.00;;;26.50
19040;BMP180;9652;49.014;12.052;2022-09-03T12:03:42;97677.00;;;26.60
19040;BMP180;9652;49.014;12.052;2022-09-03T12:06:42;97634.00;;;26.70
19040;BMP180;9652;49.014;12.052;2022-09-03T12:09:31;97661.00;;;26.70
19040;BMP180;9652;49.014;12.052;2022-09-03T12:12:17;97679.00;;;26.80
19040;BMP180;9652;49.014;12.052;2022-09-03T12:15:00;97643.00;;;26.90
19040;BMP180;9652;49.014;12.052;2022-09-03T12:17:34;97658.00;;;27.00
19040;BMP180;9652;49.014;12.052;2022-09-03T12:20:12;97661.00;;;27.00
19040;BMP180;9652;49.014;12.052;2022-09-03T12:22:40;97655.00;;;27.10
19040;BMP180;9652;49.014;12.052;2022-09-03T12:25:09;97661.00;;;27.20
19040;BMP180;9652;49.014;12.052;2022-09-03T12:27:39;97647.00;;;27.20
19040;BMP180;9652;49.014;12.052;2022-09-03T12:30:16;97651.00;;;27.30
19040;BMP180;9652;49.014;12.052;2022-09-03T12:32:46;97654.00;;;27.30
19040;BMP180;9652;49.014;12.052;2022-09-03T12:35:18;97627.00;;;27.40
19040;BMP180;9652;49.014;12.052;2022-09-03T12:37:46;97650.00;;;27.40
19040;BMP180;9652;49.014;12.052;2022-09-03T12:40:19;97643.00;;;27.50
19040;BMP180;9652;49.014;12.052;2022-09-03T12:42:46;97640.00;;;27.50
19040;BMP180;9652;49.014;12.052;2022-09-03T12:45:18;97639.00;;;27.50
19040;BMP180;9652;49.014;12.052;2022-09-03T12:47:46;97633.00;;;27.60
19040;BMP180;9652;49.014;12.052;2022-09-03T12:50:17;97637.00;;;27.60
19040;BMP180;9652;49.014;12.052;2022-09-03T12:52:47;97635.00;;;27.50
19040;BMP180;9652;49.014;12.052;2022-09-03T12:55:34;97625.00;;;27.50
19040;BMP180;9652;49.014;12.052;2022-09-03T12:58:09;97637.00;;;27.50
19040;BMP180;9652;49.014;12.052;2022-09-03T13:00:42;97637.00;;;27.50
19040;BMP180;9652;49.014;12.052;2022-09-03T13:03:18;97640.00;;;27.40
19040;BMP180;9652;49.014;12.052;2022-09-03T13:05:53;97634.00;;;27.30
19040;BMP180;9652;49.014;12.052;2022-09-03T13:08:24;97646.00;;;27.20
19040;BMP180;9652;49.014;12.052;2022-09-03T13:10:56;97623.00;;;27.10
19040;BMP180;9652;49.014;12.052;2022-09-03T13:13:26;97618.00;;;27.00
19040;BMP180;9652;49.014;12.052;2022-09-03T13:16:24;97639.00;;;26.80
19040;BMP180;9652;49.014;12.052;2022-09-03T13:19:04;97635.00;;;26.70
19040;BMP180;9652;49.014;12.052;2022-09-03T13:21:47;97629.00;;;26.60
19040;BMP180;9652;49.014;12.052;2022-09-03T13:24:39;97622.00;;;26.50
19040;BMP180;9652;49.014;12.052;2022-09-03T13:27:19;97637.00;;;26.40
19040;BMP180;9652;49.014;12.052;2022-09-03T13:30:03;97628.00;;;26.30
19040;BMP180;9652;49.014;12.052;2022-09-03T13:32:50;97634.00;;;26.30
19040;BMP180;9652;49.014;12.052;2022-09-03T13:35:29;97630.00;;;26.00
19040;BMP180;9652;49.014;12.052;2022-09-03T13:38:13;97632.00;;;26.20
19040;BMP180;9652;49.014;12.052;2022-09-03T13:40:51;97629.00;;;26.20
19040;BMP180;9652;49.014;12.052;2022-09-03T13:43:30;97625.00;;;26.20
19040;BMP180;9652;49.014;12.052;2022-09-03T13:46:05;97649.00;;;26.20
19040;BMP180;9652;49.014;12.052;2022-09-03T13:48:39;97636.00;;;26.30
19040;BMP180;9652;49.014;12.052;2022-09-03T13:51:46;97644.00;;;26.10
19040;BMP180;9652;49.014;12.052;2022-09-03T13:54:23;97648.00;;;26.30
19040;BMP180;9652;49.014;12.052;2022-09-03T13:56:59;97642.00;;;26.30
19040;BMP180;9652;49.014;12.052;2022-09-03T13:59:34;97629.00;;;26.30
19040;BMP180;9652;49.014;12.052;2022-09-03T14:02:17;97626.00;;;26.30
19040;BMP180;9652;49.014;12.052;2022-09-03T14:05:04;97633.00;;;26.30
19040;BMP180;9652;49.014;12.052;2022-09-03T14:07:53;97636.00;;;26.30
19040;BMP180;9652;49.014;12.052;2022-09-03T14:10:34;97638.00;;;26.20
19040;BMP180;9652;49.014;12.052;2022-09-03T14:13:15;97639.00;;;26.20
19040;BMP180;9652;49.014;12.052;2022-09-03T14:15:51;97633.00;;;26.10
19040;BMP180;9652;49.014;12.052;2022-09-03T14:18:36;97645.00;;;26.00
19040;BMP180;9652;49.014;12.052;2022-09-03T14:21:13;97655.00;;;26.00
19040;BMP180;9652;49.014;12.052;2022-09-03T14:23:50;97644.00;;;25.90
19040;BMP180;9652;49.014;12.052;2022-09-03T14:26:29;97650.00;;;25.80
19040;BMP180;9652;49.014;12.052;2022-09-03T14:29:03;97660.00;;;25.80
19040;BMP180;9652;49.014;12.052;2022-09-03T14:31:58;97654.00;;;25.70
19040;BMP180;9652;49.014;12.052;2022-09-03T14:34:46;97659.00;;;25.60
19040;BMP180;9652;49.014;12.052;2022-09-03T14:37:54;97651.00;;;25.50
19040;BMP180;9652;49.014;12.052;2022-09-03T14:40:31;97657.00;;;25.40
19040;BMP180;9652;49.014;12.052;2022-09-03T14:46:32;97640.00;;;25.30
19040;BMP180;9652;49.014;12.052;2022-09-03T14:49:47;97653.00;;;25.20
19040;BMP180;9652;49.014;12.052;2022-09-03T14:52:43;97656.00;;;25.20
19040;BMP180;9652;49.014;12.052;2022-09-03T14:55:37;97660.00;;;25.20
19040;BMP180;9652;49.014;12.052;2022-09-03T14:58:40;97641.00;;;25.20
19040;BMP180;9652;49.014;12.052;2022-09-03T15:01:11;97672.00;;;25.20
19040;BMP180;9652;49.014;12.052;2022-09-03T15:04:24;97659.00;;;25.10